Keota, IA

5:38 AM CDT on September 30, 2014 (GMT -0500)
Downtown Kalona | Change Station
CLOSE
Current Station
Personal Weather Station
Location: Kalona, IA
Elevation: 664 ft
Nearby Weather Stations

Elev 664 ft 41.48 °N, 91.71 °W | Updated 24 seconds ago

Overcast
Overcast
55.4 °F
Feels Like 55.4 °F
N
3.0
Wind Variable Wind from North
Gusts 8.0 mph

Today
High -- | Low -- °F
--% Chance of Precip.
Yesterday
High -- | Low -- °F
Precip. -- in
7:03 AM 6:51 PM
Waxing Crescent, 35% visible
Pressure 30.00 in
Visibility 10.0 miles
Clouds Overcast 600 ft
Dew Point 52 °F
Humidity 89%
Rainfall 0.00 in
Snow Depth Not available.
UV 0 out of 12
Pollen 3.90 out of 12
Air Quality Not available.
Flu Activity Not available.
METAR KAWG 301015Z AUTO 06008KT 10SM OVC006 14/13 A3000 RMK AO2

More Conditions Fewer Conditions

Pressure 30.00 in
Visibility 10.0 miles
Clouds Overcast 600 ft
Dew Point 52 °F
Humidity 89%
Rainfall 0.00 in
Snow Depth Not available.
UV 0 out of 12
Pollen 3.90 out of 12
Air Quality Not available.
Flu Activity Not available.
METAR KAWG 301015Z AUTO 06008KT 10SM OVC006 14/13 A3000 RMK AO2

More Conditions Fewer Conditions

10-Day Weather Forecast

Almanac

Astronomy

Sep. 30, 2014 Rise Set
Actual Time 7:03 AM CDT 6:51 PM CDT
Civil Twilight 6:35 AM CDT 7:18 PM CDT
Nautical Twilight 6:03 AM CDT 7:50 PM CDT
Astronomical Twilight 5:31 AM CDT 8:23 PM CDT
Moon 1:14 PM CDT 11:18 PM CDT
Length of Visible Light 12h 42m
Length of Day
11h 47m
Tomorrow will be 2m 45s shorter.
Waxing Crescent, 35% of the Moon is Illuminated
Today
Waxing Crescent
Oct 1
First Quarter
Oct 8
Full
Oct 15
Last Quarter
Oct 23
New

Today's Extremes

State Highs State Lows

Community

WunderPhotos

Upload Photos

1,757,609 photos uploaded!

WunderBlogs® & News

Nearby

Snow Depth

Station Depth Elevation
No new snow has been reported.

Earthquake Activity

City Distance Mag. Time & Date
No recent earthquake activity has been reported nearby.
Minimum magnitude displayed is 2.5.

Coastal Water Temperatures

Place Temperature
No Stations Reporting

Nearby Weather Stations